Time;durP1;ratioP1;P1;durP2;ratioP2;P2;SDS_P1;SDS_P2;PMS_P1;PMS_P2;Temp;Humidity;BMP_temperature;BMP_pressure;BME280_temperature;BME280_humidity;BME280_pressure;Samples;Min_cycle;Max_cycle;Signal;HPM_P1;HPM_P2
2022/05/04 00:00:22;;;;;;;13.05;7.82;;;;;;;12.07;57.20;99657.00;5030405;28;20053;-73
2022/05/04 00:02:47;;;;;;;13.07;8.02;;;;;;;12.04;57.62;99667.59;5030696;28;20049;-73
2022/05/04 00:05:13;;;;;;;11.93;6.80;;;;;;;11.99;57.62;99661.78;5030798;28;20041;-73
2022/05/04 00:07:38;;;;;;;12.82;7.57;;;;;;;11.90;57.92;99651.81;5030455;28;20029;-73
2022/05/04 00:10:05;;;;;;;14.70;8.10;;;;;;;11.91;58.09;99658.72;5030644;28;20414;-73
2022/05/04 00:12:32;;;;;;;10.48;7.22;;;;;;;11.82;57.91;99657.41;5030192;28;20563;-73
2022/05/04 00:14:58;;;;;;;11.02;7.72;;;;;;;11.78;58.38;99661.09;5030327;28;20041;-73
2022/05/04 00:17:23;;;;;;;13.30;7.65;;;;;;;11.85;58.11;99667.72;5030486;28;20038;-73
2022/05/04 00:19:48;;;;;;;12.70;8.00;;;;;;;11.64;58.13;99632.25;5030128;28;20033;-73
2022/05/04 00:22:21;;;;;;;12.60;7.50;;;;;;;11.79;58.43;99667.97;5029658;28;20148;-72
2022/05/04 00:24:47;;;;;;;11.90;7.22;;;;;;;11.72;58.75;99657.03;5049190;28;20100;-73
2022/05/04 00:27:15;;;;;;;11.63;8.60;;;;;;;11.65;59.07;99653.03;5092700;28;20081;-73
2022/05/04 00:29:42;;;;;;;10.15;7.95;;;;;;;11.62;59.32;99661.03;5092762;28;20027;-73
2022/05/04 00:32:07;;;;;;;10.38;7.25;;;;;;;11.57;59.28;99665.63;5092933;28;20032;-73
2022/05/04 00:34:33;;;;;;;15.57;8.73;;;;;;;11.55;59.73;99671.88;5092561;28;20020;-73
2022/05/04 00:37:01;;;;;;;11.35;8.23;;;;;;;11.54;59.93;99663.16;5092368;28;20031;-73
2022/05/04 00:39:26;;;;;;;14.90;8.43;;;;;;;11.53;60.44;99658.88;5092655;28;20024;-73
2022/05/04 00:41:52;;;;;;;11.40;8.10;;;;;;;11.56;60.27;99668.31;5092317;28;20028;-73
2022/05/04 00:44:17;;;;;;;14.60;8.88;;;;;;;11.46;60.43;99662.72;5092508;28;20380;-73
2022/05/04 00:46:43;;;;;;;15.23;8.90;;;;;;;11.34;60.71;99647.69;5092216;28;20123;-73
2022/05/04 00:49:08;;;;;;;13.23;9.45;;;;;;;11.35;60.60;99662.41;5092657;28;20020;-73
2022/05/04 00:51:34;;;;;;;13.82;8.55;;;;;;;11.40;60.66;99668.25;5092526;28;20472;-73
2022/05/04 00:54:00;;;;;;;15.32;8.77;;;;;;;11.42;60.25;99674.25;5092263;28;20494;-73
2022/05/04 00:56:25;;;;;;;13.55;9.32;;;;;;;11.40;59.79;99657.81;5092066;28;20024;-73
2022/05/04 00:58:57;;;;;;;13.60;9.13;;;;;;;11.51;59.41;99676.38;5092280;28;20028;-73
2022/05/04 01:01:29;;;;;;;15.85;9.57;;;;;;;11.45;59.30;99661.88;5092411;28;20476;-73
2022/05/04 01:03:56;;;;;;;20.85;12.93;;;;;;;11.46;59.24;99671.41;5092060;28;20020;-73
2022/05/04 01:06:23;;;;;;;15.00;10.70;;;;;;;11.48;59.20;99677.38;5091815;28;20589;-73
2022/05/04 01:08:49;;;;;;;19.70;12.45;;;;;;;11.43;59.40;99670.72;5091899;28;20024;-73
2022/05/04 01:11:18;;;;;;;14.18;9.07;;;;;;;11.44;59.35;99681.06;5092414;28;20484;-73
2022/05/04 01:14:03;;;;;;;13.80;8.82;;;;;;;11.49;59.46;99689.47;5092184;28;20024;-73
2022/05/04 01:16:30;;;;;;;16.80;9.27;;;;;;;11.38;59.66;99681.38;5092032;28;20056;-73
2022/05/04 01:18:56;;;;;;;12.00;7.75;;;;;;;11.45;59.93;99697.53;5091833;28;20027;-73
2022/05/04 01:21:21;;;;;;;13.73;8.55;;;;;;;11.32;60.39;99686.88;5091896;28;20594;-73
2022/05/04 01:23:47;;;;;;;12.20;8.27;;;;;;;11.39;61.10;99698.69;5091750;28;20538;-73
2022/05/04 01:26:16;;;;;;;12.93;8.77;;;;;;;11.34;61.21;99679.81;5092086;28;20024;-73
2022/05/04 01:28:45;;;;;;;12.82;9.23;;;;;;;11.33;61.15;99685.94;5091640;28;20024;-73
2022/05/04 01:31:11;;;;;;;16.25;9.45;;;;;;;11.28;61.03;99674.91;5092245;28;20102;-73
2022/05/04 01:33:38;;;;;;;18.13;10.85;;;;;;;11.27;60.91;99683.66;5091670;28;20024;-73
2022/05/04 01:36:04;;;;;;;14.30;9.75;;;;;;;11.30;61.07;99693.94;5091746;28;20039;-73
2022/05/04 01:38:29;;;;;;;15.10;9.80;;;;;;;11.38;61.08;99704.00;5091468;28;20024;-72
2022/05/04 01:40:55;;;;;;;15.52;9.98;;;;;;;11.35;60.97;99688.50;5091616;28;20051;-73
2022/05/04 01:43:20;;;;;;;14.18;9.43;;;;;;;11.45;61.00;99701.00;5091877;28;20062;-72
2022/05/04 01:45:45;;;;;;;16.65;8.93;;;;;;;11.43;60.75;99694.19;5091534;28;20030;-73
2022/05/04 01:48:11;;;;;;;16.73;10.23;;;;;;;11.52;60.51;99703.31;5091810;28;20400;-73
2022/05/04 01:50:36;;;;;;;14.35;9.85;;;;;;;11.43;60.29;99686.34;5091308;28;20027;-73
2022/05/04 01:53:02;;;;;;;14.43;9.48;;;;;;;11.46;60.37;99691.41;5091923;28;20043;-73
2022/05/04 01:55:32;;;;;;;16.65;9.05;;;;;;;11.54;60.79;99704.06;5091727;28;20377;-73
2022/05/04 01:57:57;;;;;;;15.20;8.57;;;;;;;11.42;61.09;99692.50;5091458;28;20036;-73
2022/05/04 02:00:23;;;;;;;10.65;7.68;;;;;;;11.36;61.54;99684.97;5091412;28;20020;-73
2022/05/04 02:02:49;;;;;;;11.63;7.97;;;;;;;11.32;61.70;99684.25;5091325;28;20024;-73
2022/05/04 02:05:15;;;;;;;14.23;8.02;;;;;;;11.11;61.93;99657.47;5091326;28;20353;-73
2022/05/04 02:07:40;;;;;;;15.45;9.55;;;;;;;11.27;62.26;99696.69;5091540;28;20043;-73
2022/05/04 02:10:06;;;;;;;14.82;7.97;;;;;;;11.22;62.41;99709.09;5091464;28;20477;-73
2022/05/04 02:12:34;;;;;;;10.80;8.18;;;;;;;11.18;62.57;99699.75;5091301;28;20513;-73
2022/05/04 02:15:00;;;;;;;12.57;8.73;;;;;;;11.13;62.65;99701.72;5091258;28;20020;-73
2022/05/04 02:17:25;;;;;;;12.85;8.65;;;;;;;11.12;62.98;99708.69;5091442;28;20032;-73
2022/05/04 02:19:51;;;;;;;13.57;8.23;;;;;;;11.11;62.94;99709.59;5091254;28;20028;-73
2022/05/04 02:22:16;;;;;;;14.32;9.27;;;;;;;11.07;62.97;99709.81;5091135;28;20028;-73
2022/05/04 02:24:41;;;;;;;13.23;9.05;;;;;;;10.92;63.56;99698.38;5091414;28;20050;-73
2022/05/04 02:27:07;;;;;;;10.27;7.47;;;;;;;10.91;64.06;99710.56;5091550;28;20032;-73
2022/05/04 02:29:32;;;;;;;11.73;7.82;;;;;;;10.76;64.50;99693.03;5091407;28;20508;-73
2022/05/04 02:31:58;;;;;;;13.65;8.18;;;;;;;10.69;64.88;99689.03;5091216;28;20034;-73
2022/05/04 02:34:24;;;;;;;14.98;8.45;;;;;;;10.63;65.09;99694.53;5091019;28;20055;-73
2022/05/04 02:39:34;;;;;;;11.07;8.98;;;;;;;10.56;65.96;99698.31;5091190;28;20038;-73
2022/05/04 02:41:59;;;;;;;12.30;8.15;;;;;;;10.44;66.07;99687.53;5091033;28;20024;-73
2022/05/04 02:44:25;;;;;;;16.33;10.38;;;;;;;10.46;66.28;99695.28;5092094;28;20118;-73
2022/05/04 02:46:50;;;;;;;14.65;10.43;;;;;;;10.55;65.94;99700.09;5094338;28;20477;-73
2022/05/04 02:49:16;;;;;;;17.63;10.20;;;;;;;10.61;65.63;99707.59;5095325;28;20028;-72
2022/05/04 02:51:41;;;;;;;17.15;11.00;;;;;;;10.64;65.65;99699.66;5094914;28;20536;-73
2022/05/04 02:54:07;;;;;;;11.30;8.68;;;;;;;10.69;65.30;99710.69;5094568;28;20039;-73
2022/05/04 02:56:32;;;;;;;16.33;10.60;;;;;;;10.72;65.07;99707.97;5094498;28;20103;-73
2022/05/04 02:58:58;;;;;;;16.63;10.20;;;;;;;10.73;64.83;99711.41;5094386;28;20392;-73
2022/05/04 03:04:10;;;;;;;16.15;10.60;;;;;;;10.73;64.64;99703.59;5094294;28;20035;-73
2022/05/04 03:06:41;;;;;;;16.13;10.70;;;;;;;10.82;64.75;99718.78;5094318;28;20040;-73
2022/05/04 03:09:09;;;;;;;14.57;10.88;;;;;;;10.77;64.68;99704.31;5092900;28;20437;-73
2022/05/04 03:14:20;;;;;;;15.48;10.02;;;;;;;10.76;64.95;99724.31;5094694;28;20079;-73
2022/05/04 03:16:46;;;;;;;13.75;9.75;;;;;;;10.67;65.09;99716.91;5094178;28;20028;-73
2022/05/04 03:19:12;;;;;;;15.88;9.63;;;;;;;10.57;65.42;99713.88;5094527;28;20384;-73
2022/05/04 03:21:37;;;;;;;14.60;9.35;;;;;;;10.51;65.82;99710.72;5094332;28;20024;-73
2022/05/04 03:24:03;;;;;;;14.70;9.88;;;;;;;10.52;66.63;99726.25;5094067;28;20046;-73
2022/05/04 03:26:28;;;;;;;13.77;8.60;;;;;;;10.47;66.41;99723.03;5093778;28;20465;-73
2022/05/04 03:28:55;;;;;;;12.88;8.63;;;;;;;10.46;66.69;99722.19;5094160;28;20515;-73
2022/05/04 03:31:20;;;;;;;13.10;8.85;;;;;;;10.45;66.80;99717.91;5094300;28;20031;-73
2022/05/04 03:33:46;;;;;;;13.75;8.77;;;;;;;10.46;66.66;99727.38;5094229;28;20028;-73
2022/05/04 03:36:11;;;;;;;14.30;9.35;;;;;;;10.39;66.67;99723.34;5096747;28;20063;-73
2022/05/04 03:38:37;;;;;;;15.10;9.15;;;;;;;10.43;66.92;99734.47;5095819;28;20028;-73
2022/05/04 03:41:02;;;;;;;13.30;9.35;;;;;;;10.34;66.98;99719.28;5095852;28;20024;-73
2022/05/04 03:43:28;;;;;;;13.60;8.60;;;;;;;10.30;67.28;99731.59;5095772;28;20443;-73
2022/05/04 03:45:54;;;;;;;11.75;8.88;;;;;;;10.34;67.75;99730.53;5093734;28;20024;-73
2022/05/04 03:48:20;;;;;;;15.50;8.95;;;;;;;10.34;67.81;99735.75;5093331;28;20044;-73
2022/05/04 03:50:46;;;;;;;14.77;9.50;;;;;;;10.30;68.16;99721.16;5093524;28;20023;-73
2022/05/04 03:53:12;;;;;;;12.63;9.02;;;;;;;10.36;67.91;99723.50;5093837;28;20025;-73
2022/05/04 03:55:38;;;;;;;14.95;9.88;;;;;;;10.54;67.53;99734.03;5093353;28;20027;-73
2022/05/04 03:58:03;;;;;;;11.07;8.85;;;;;;;10.57;67.32;99728.66;5093590;28;20036;-73
2022/05/04 04:00:29;;;;;;;13.93;9.48;;;;;;;10.58;67.08;99731.19;5093111;28;20016;-73
2022/05/04 04:02:54;;;;;;;14.38;10.40;;;;;;;10.54;67.25;99727.03;5093095;28;20361;-73
2022/05/04 04:05:21;;;;;;;14.98;10.30;;;;;;;10.52;67.55;99735.84;5093182;28;20032;-73
2022/05/04 04:07:46;;;;;;;15.63;9.20;;;;;;;10.42;67.62;99720.63;5092993;28;20460;-73
2022/05/04 04:10:11;;;;;;;14.68;9.95;;;;;;;10.43;67.52;99730.13;5092650;28;20107;-73
2022/05/04 04:12:37;;;;;;;14.80;9.52;;;;;;;10.51;67.78;99731.53;5091682;28;20460;-72
2022/05/04 04:15:03;;;;;;;12.75;8.90;;;;;;;10.48;68.11;99717.72;5091614;28;20081;-73
2022/05/04 04:17:29;;;;;;;12.82;8.63;;;;;;;10.69;67.57;99722.88;5092858;28;20032;-73
2022/05/04 04:22:39;;;;;;;14.70;9.77;;;;;;;11.22;66.77;99737.78;5092871;28;20093;-73
2022/05/04 04:25:05;;;;;;;14.48;9.30;;;;;;;11.64;65.38;99744.44;5092830;28;20024;-73
2022/05/04 04:27:34;;;;;;;18.13;10.82;;;;;;;11.69;64.19;99725.03;5092775;28;20469;-73
2022/05/04 04:30:00;;;;;;;18.77;10.52;;;;;;;12.07;62.77;99737.09;5092607;28;20020;-73
2022/05/04 04:32:26;;;;;;;14.70;10.43;;;;;;;12.71;61.07;99726.69;5092611;28;20031;-73
2022/05/04 04:34:51;;;;;;;14.90;9.45;;;;;;;13.57;58.19;99747.25;5092626;28;20468;-73
2022/05/04 04:37:16;;;;;;;16.05;10.40;;;;;;;13.52;56.51;99721.34;5092535;28;20114;-73
2022/05/04 04:39:42;;;;;;;14.75;9.50;;;;;;;13.09;57.54;99738.59;5093192;28;20085;-73
2022/05/04 04:42:07;;;;;;;14.50;10.10;;;;;;;12.76;58.70;99746.50;5092544;28;20115;-73
2022/05/04 04:44:33;;;;;;;14.70;10.48;;;;;;;12.53;59.77;99739.91;5092610;28;20024;-73
2022/05/04 04:46:58;;;;;;;13.75;9.95;;;;;;;12.43;60.09;99745.63;5092588;28;20047;-73
2022/05/04 04:49:25;;;;;;;17.40;10.57;;;;;;;12.30;60.68;99748.94;5092856;28;20028;-73
2022/05/04 04:51:50;;;;;;;16.00;10.77;;;;;;;12.79;60.41;99744.56;5092347;28;20373;-73
2022/05/04 04:54:16;;;;;;;14.38;10.60;;;;;;;13.80;57.51;99749.38;5092606;28;20086;-72
2022/05/04 04:56:42;;;;;;;17.92;10.80;;;;;;;15.52;52.93;99749.28;5092608;28;20070;-73
2022/05/04 04:59:07;;;;;;;15.93;11.18;;;;;;;16.96;48.09;99735.91;5092418;28;20453;-73
2022/05/04 05:01:32;;;;;;;20.50;11.77;;;;;;;17.59;45.28;99748.91;5092510;28;20111;-72
2022/05/04 05:03:58;;;;;;;16.75;10.82;;;;;;;17.30;44.70;99746.63;5092239;28;20036;-73
2022/05/04 05:06:25;;;;;;;16.20;10.70;;;;;;;17.17;45.61;99751.09;5091886;28;20062;-72
2022/05/04 05:08:50;;;;;;;15.55;11.25;;;;;;;17.34;45.30;99755.16;5091950;28;20046;-73
2022/05/04 05:11:16;;;;;;;16.92;10.60;;;;;;;17.57;44.45;99758.72;5092128;28;20024;-73
2022/05/04 05:16:25;;;;;;;15.35;10.75;;;;;;;19.52;40.90;99768.22;5092098;28;20050;-73
2022/05/04 05:18:50;;;;;;;14.07;10.80;;;;;;;20.15;38.22;99756.75;5091916;28;20430;-73
2022/05/04 05:21:17;;;;;;;14.35;10.30;;;;;;;20.32;38.18;99757.97;5091779;28;20028;-73
2022/05/04 05:23:42;;;;;;;19.70;12.68;;;;;;;20.03;38.29;99771.00;5092200;28;20032;-73
2022/05/04 05:26:09;;;;;;;31.20;16.42;;;;;;;19.31;39.03;99761.06;5091821;28;20052;-73
2022/05/04 05:28:34;;;;;;;30.92;16.50;;;;;;;18.88;39.67;99763.69;5091690;28;20034;-73
2022/05/04 05:31:00;;;;;;;38.42;20.70;;;;;;;18.36;41.15;99773.81;5091733;28;20016;-73
2022/05/04 05:33:25;;;;;;;17.90;11.85;;;;;;;17.98;42.26;99770.63;5091825;28;20028;-73
2022/05/04 05:35:51;;;;;;;24.90;14.48;;;;;;;17.89;42.91;99769.53;5091978;28;20449;-73
2022/05/04 05:38:16;;;;;;;23.02;11.68;;;;;;;18.23;42.38;99781.00;5091268;28;20020;-73
2022/05/04 05:40:42;;;;;;;15.30;10.50;;;;;;;18.13;42.20;99777.38;5091838;28;20031;-73
2022/05/04 05:43:08;;;;;;;14.40;10.13;;;;;;;17.67;43.36;99768.47;5091639;28;20043;-73
2022/05/04 05:45:33;;;;;;;18.23;10.57;;;;;;;17.35;44.40;99781.34;5091699;28;20465;-73
2022/05/04 05:47:59;;;;;;;15.63;10.63;;;;;;;17.05;45.03;99775.66;5091631;28;20493;-73
2022/05/04 05:50:24;;;;;;;18.90;12.85;;;;;;;17.21;45.09;99765.72;5091354;28;20047;-73
2022/05/04 05:52:50;;;;;;;16.58;11.48;;;;;;;17.24;45.08;99783.09;5091716;28;20024;-73
2022/05/04 05:55:15;;;;;;;20.08;13.57;;;;;;;17.41;45.23;99778.28;5091430;28;20025;-73
2022/05/04 05:57:41;;;;;;;15.57;10.93;;;;;;;17.36;45.28;99772.53;5091721;28;20469;-73
2022/05/04 06:00:07;;;;;;;15.52;10.20;;;;;;;17.34;45.38;99771.78;5091301;28;20024;-73
2022/05/04 06:02:33;;;;;;;17.27;10.52;;;;;;;17.45;45.40;99782.38;5091300;28;20035;-73
2022/05/04 06:04:59;;;;;;;17.73;10.88;;;;;;;17.62;45.76;99764.50;5091313;28;20024;-73
2022/05/04 06:07:24;;;;;;;17.52;12.20;;;;;;;17.84;44.01;99772.50;5091844;28;20036;-73
2022/05/04 06:09:50;;;;;;;15.50;9.55;;;;;;;17.69;44.05;99784.97;5091651;28;20020;-73
2022/05/04 06:12:16;;;;;;;21.67;12.38;;;;;;;17.53;44.25;99773.91;5091338;28;20032;-73
2022/05/04 06:14:41;;;;;;;12.65;9.65;;;;;;;17.86;43.96;99782.94;5091573;28;20020;-73
2022/05/04 06:17:07;;;;;;;16.27;11.27;;;;;;;18.13;43.93;99774.75;5091137;28;20529;-73
2022/05/04 06:19:32;;;;;;;13.38;9.80;;;;;;;18.16;43.79;99774.50;5092857;28;20032;-73
2022/05/04 06:21:58;;;;;;;14.25;9.85;;;;;;;18.88;43.51;99755.78;5095289;28;20472;-73
2022/05/04 06:24:25;;;;;;;12.90;9.65;;;;;;;20.44;40.92;99783.38;5095221;28;20020;-73
2022/05/04 06:26:51;;;;;;;12.90;8.90;;;;;;;23.06;36.38;99775.50;5095198;28;20528;-73
2022/05/04 06:29:16;;;;;;;13.68;9.43;;;;;;;25.46;31.60;99765.34;5095075;28;20058;-73
2022/05/04 06:34:25;;;;;;;15.43;9.57;;;;;;;27.50;28.06;99783.59;5095072;28;20031;-73
2022/05/04 06:36:50;;;;;;;12.30;8.88;;;;;;;27.04;28.06;99770.13;5095220;28;20036;-73
2022/05/04 06:39:16;;;;;;;13.02;8.80;;;;;;;26.71;28.94;99774.78;5094847;28;20064;-74
2022/05/04 06:41:41;;;;;;;11.05;8.35;;;;;;;28.39;27.13;99786.59;5100601;28;20038;-74
2022/05/04 06:44:07;;;;;;;12.82;9.00;;;;;;;30.39;23.81;99774.41;5114980;28;20467;-74
2022/05/04 06:46:33;;;;;;;9.63;7.97;;;;;;;32.13;21.81;99777.47;5114787;28;20027;-73
2022/05/04 06:48:58;;;;;;;12.00;8.90;;;;;;;33.81;19.87;99791.78;5114158;28;20068;-73
2022/05/04 06:51:24;;;;;;;11.75;9.15;;;;;;;34.24;19.32;99785.63;5114770;28;20394;-73
2022/05/04 06:53:50;;;;;;;14.25;9.45;;;;;;;35.79;18.26;99792.53;5115098;28;20085;-73
2022/05/04 06:56:15;;;;;;;10.13;7.90;;;;;;;36.65;17.38;99788.31;5114706;28;20137;-74
2022/05/04 06:58:41;;;;;;;12.73;8.70;;;;;;;36.40;16.98;99781.25;5114965;28;20655;-73
2022/05/04 07:01:08;;;;;;;10.00;7.13;;;;;;;36.34;17.03;99778.66;5114696;28;20051;-73
2022/05/04 07:03:33;;;;;;;10.13;7.80;;;;;;;37.00;16.38;99784.72;5115074;28;20016;-73
2022/05/04 07:05:59;;;;;;;9.82;8.25;;;;;;;37.70;15.62;99776.25;5114751;28;20478;-73
2022/05/04 07:08:27;;;;;;;10.15;8.02;;;;;;;38.22;15.13;99784.16;5113921;28;20031;-73
2022/05/04 07:10:55;;;;;;;12.32;9.38;;;;;;;38.38;14.97;99788.78;5114959;28;20032;-73
2022/05/04 07:13:21;;;;;;;12.80;7.93;;;;;;;38.53;14.33;99781.94;5114572;28;20027;-73
2022/05/04 07:15:47;;;;;;;9.73;7.95;;;;;;;38.36;14.56;99780.06;5114618;28;20073;-74
2022/05/04 07:18:12;;;;;;;8.88;7.10;;;;;;;38.20;14.44;99792.59;5114210;28;20357;-74
2022/05/04 07:20:37;;;;;;;10.63;7.57;;;;;;;38.12;14.15;99782.13;5114812;28;20038;-74
2022/05/04 07:23:03;;;;;;;9.82;7.63;;;;;;;38.38;14.12;99788.78;5114436;28;20430;-73
2022/05/04 07:25:28;;;;;;;10.85;8.10;;;;;;;39.31;13.57;99791.59;5114584;28;20066;-74
2022/05/04 07:27:54;;;;;;;8.93;8.02;;;;;;;40.37;12.94;99776.41;5114166;28;20472;-74
2022/05/04 07:30:19;;;;;;;12.38;7.65;;;;;;;41.10;13.04;99781.97;5113234;28;20059;-74
2022/05/04 07:32:45;;;;;;;9.60;7.18;;;;;;;42.22;12.63;99781.19;5114214;28;20024;-74
2022/05/04 07:35:11;;;;;;;8.27;7.43;;;;;;;42.29;12.85;99774.38;5113918;28;20104;-72
2022/05/04 07:37:36;;;;;;;12.07;8.50;;;;;;;43.12;11.85;99789.41;5113853;28;20465;-72
2022/05/04 07:42:46;;;;;;;13.25;7.40;;;;;;;43.29;11.74;99800.00;5114203;28;20063;-72
2022/05/04 07:45:13;;;;;;;9.20;6.82;;;;;;;42.70;11.76;99796.16;5114142;28;20458;-72
2022/05/04 07:47:39;;;;;;;12.52;7.13;;;;;;;42.81;11.75;99800.47;5113946;28;20580;-72
2022/05/04 07:50:07;;;;;;;9.27;7.28;;;;;;;42.52;12.17;99785.78;5113917;27;20027;-74
2022/05/04 07:52:34;;;;;;;13.35;7.05;;;;;;;41.51;12.47;99796.56;5113785;28;20031;-72
2022/05/04 07:55:01;;;;;;;14.55;8.52;;;;;;;40.69;13.06;99791.88;5111518;28;20028;-74
2022/05/04 07:57:26;;;;;;;9.80;7.82;;;;;;;40.24;13.89;99793.25;5113651;28;20042;-74
2022/05/04 08:05:22;;;;;;;10.55;6.97;;;;;;;41.63;12.83;99791.63;5114255;28;20043;-72
2022/05/04 08:07:47;;;;;;;11.18;6.78;;;;;;;42.20;12.05;99800.63;5114275;28;20495;-71
2022/05/04 08:10:13;;;;;;;7.55;6.07;;;;;;;42.69;11.27;99790.97;5113957;28;20019;-71
2022/05/04 08:12:39;;;;;;;7.80;6.10;;;;;;;43.27;10.90;99813.16;5113820;28;20028;-73
2022/05/04 08:15:05;;;;;;;9.85;6.80;;;;;;;43.08;11.09;99796.56;5113458;28;20032;-73
2022/05/04 08:17:30;;;;;;;10.45;6.43;;;;;;;42.82;11.14;99804.88;5113654;28;20084;-73
2022/05/04 08:19:56;;;;;;;9.73;7.15;;;;;;;39.89;12.83;99803.59;5113627;28;20019;-73
2022/05/04 08:22:21;;;;;;;8.65;6.90;;;;;;;34.59;16.14;99804.03;5112952;28;20070;-72
2022/05/04 08:24:47;;;;;;;9.75;7.80;;;;;;;31.47;19.32;99792.50;5113618;28;20111;-73
2022/05/04 08:27:12;;;;;;;11.20;8.35;;;;;;;29.24;21.25;99789.59;5113320;28;20028;-73
2022/05/04 08:29:37;;;;;;;10.68;6.93;;;;;;;27.78;22.38;99792.81;5113610;28;20035;-72
2022/05/04 08:32:03;;;;;;;13.70;6.80;;;;;;;26.07;24.40;99799.59;5113286;28;20488;-72
2022/05/04 08:34:29;;;;;;;9.65;7.13;;;;;;;25.17;26.05;99798.59;5113945;28;20053;-72
2022/05/04 08:36:54;;;;;;;8.07;6.80;;;;;;;24.49;26.87;99796.78;5114109;28;20035;-72
2022/05/04 08:39:20;;;;;;;11.25;7.20;;;;;;;24.24;27.45;99795.75;5113154;27;20020;-72
2022/05/04 08:41:45;;;;;;;15.38;7.43;;;;;;;23.71;28.43;99798.47;5112490;28;20038;-72
2022/05/04 08:44:12;;;;;;;9.45;7.10;;;;;;;23.01;29.73;99796.38;5112857;28;20031;-72
2022/05/04 08:46:44;;;;;;;11.85;7.60;;;;;;;22.72;30.58;99796.47;5112775;28;20032;-72
2022/05/04 08:49:12;;;;;;;10.00;7.10;;;;;;;22.54;30.75;99796.38;5112758;28;20034;-72
2022/05/04 08:51:39;;;;;;;10.48;7.38;;;;;;;22.57;30.91;99809.34;5112803;28;20581;-72
2022/05/04 08:54:06;;;;;;;7.97;6.75;;;;;;;22.32;30.23;99809.97;5112771;28;20497;-72
2022/05/04 08:56:33;;;;;;;6.72;6.00;;;;;;;22.28;31.56;99800.63;5112629;28;20109;-72
2022/05/04 08:59:00;;;;;;;7.50;6.68;;;;;;;22.42;30.78;99794.91;5114061;28;20026;-72
2022/05/04 09:01:25;;;;;;;8.45;5.90;;;;;;;22.47;30.49;99811.22;5112573;28;20062;-72
2022/05/04 09:03:51;;;;;;;9.32;6.10;;;;;;;22.13;29.71;99801.09;5112562;28;20092;-72
2022/05/04 09:06:25;;;;;;;9.20;6.63;;;;;;;21.87;30.82;99810.59;5112054;28;20078;-72
2022/05/04 09:08:54;;;;;;;11.35;6.38;;;;;;;21.90;31.45;99819.06;5112610;28;20028;-74
2022/05/04 09:11:23;;;;;;;8.05;6.28;;;;;;;21.78;31.08;99814.03;5112334;28;20027;-72
2022/05/04 09:13:50;;;;;;;8.02;6.82;;;;;;;21.59;30.70;99801.63;5112588;28;20384;-73
2022/05/04 09:16:44;;;;;;;7.25;5.68;;;;;;;21.58;30.70;99805.25;5093046;28;20043;-74
2022/05/04 09:19:12;;;;;;;10.75;6.05;;;;;;;21.61;30.28;99797.84;5029728;28;20042;-74
2022/05/04 09:21:39;;;;;;;8.48;5.15;;;;;;;21.28;29.92;99799.06;5029603;28;20045;-74
2022/05/04 09:24:05;;;;;;;6.15;4.80;;;;;;;21.10;30.73;99803.31;5045676;28;20053;-73
2022/05/04 09:26:32;;;;;;;5.93;4.78;;;;;;;21.17;31.21;99792.03;5029088;28;20037;-73
2022/05/04 09:28:59;;;;;;;7.60;4.82;;;;;;;21.21;29.71;99797.06;5029183;28;20441;-74
2022/05/04 09:31:30;;;;;;;5.18;4.43;;;;;;;20.90;29.75;99800.59;5029137;28;20045;-73
2022/05/04 09:34:01;;;;;;;4.32;3.70;;;;;;;20.72;29.64;99799.53;5029404;28;20037;-74
2022/05/04 09:36:31;;;;;;;;;;;;;;;20.71;30.29;99797.03;5029537;28;20940;-73
2022/05/04 09:47:18;;;;;;;4.00;3.40;;;;;;;20.39;30.78;99804.09;5029053;28;20060;-73
2022/05/04 09:49:47;;;;;;;6.18;3.83;;;;;;;20.60;30.60;99790.84;5029398;28;20033;-74
2022/05/04 09:52:14;;;;;;;6.15;4.72;;;;;;;20.69;29.64;99797.19;5029088;28;20033;-73
2022/05/04 09:54:39;;;;;;;6.90;4.30;;;;;;;20.72;29.85;99796.91;5040074;28;20025;-74
2022/05/04 09:57:05;;;;;;;7.70;4.10;;;;;;;20.91;29.31;99797.00;5096096;28;20032;-73
2022/05/04 09:59:34;;;;;;;6.32;3.83;;;;;;;21.06;29.36;99802.72;5096647;28;20574;-74
2022/05/04 10:02:03;;;;;;;8.45;4.70;;;;;;;21.28;29.55;99792.88;5102325;28;20032;-74
2022/05/04 10:04:32;;;;;;;8.30;4.63;;;;;;;21.24;28.59;99780.88;5101087;28;20085;-74
2022/05/04 10:07:00;;;;;;;7.22;4.07;;;;;;;21.46;28.56;99798.41;5103523;28;20031;-74
2022/05/04 10:09:25;;;;;;;6.13;4.45;;;;;;;21.62;28.35;99785.47;5103242;28;20031;-74
2022/05/04 10:11:57;;;;;;;6.70;4.22;;;;;;;21.76;28.80;99787.69;5098718;28;20519;-74
2022/05/04 10:14:23;;;;;;;5.47;3.90;;;;;;;21.97;28.69;99792.00;5098131;28;20024;-74
2022/05/04 10:16:55;;;;;;;6.10;4.13;;;;;;;22.11;28.58;99792.38;5098247;28;20050;-74
2022/05/04 10:19:25;;;;;;;5.90;3.83;;;;;;;22.30;28.35;99780.13;5076377;28;20043;-74
2022/05/04 10:21:55;;;;;;;5.23;4.33;;;;;;;22.44;28.05;99778.81;5095728;28;20103;-74
2022/05/04 10:24:21;;;;;;;;;;;;;;;22.29;28.25;99789.03;5095578;28;20024;-74
2022/05/04 10:26:47;;;;;;;5.75;4.05;;;;;;;22.26;28.86;99781.38;5095257;28;19908;-74
2022/05/04 10:32:48;;;;;;;5.57;4.75;;;;;;;22.25;28.79;99771.72;5094981;28;20396;-74
2022/05/04 10:35:17;;;;;;;6.68;4.10;;;;;;;21.92;29.63;99779.16;5032456;28;20037;-74
2022/05/04 10:37:54;;;;;;;4.72;3.90;;;;;;;21.73;29.79;99772.03;5032283;28;20120;-74
2022/05/04 10:40:29;;;;;;;6.22;3.88;;;;;;;21.79;30.59;99760.06;5032033;28;20041;-74
2022/05/04 10:43:02;;;;;;;4.15;3.50;;;;;;;21.92;29.50;99771.22;5032447;28;20029;-74
2022/05/04 10:45:39;;;;;;;7.93;4.85;;;;;;;21.57;29.29;99767.28;5032088;28;20116;-73
2022/05/04 10:48:19;;;;;;;5.13;3.90;;;;;;;21.28;30.16;99772.56;5031876;28;20054;-74
2022/05/04 10:50:57;;;;;;;7.25;4.30;;;;;;;21.43;29.77;99763.25;5015540;28;20037;-74
2022/05/04 10:53:26;;;;;;;6.00;4.28;;;;;;;21.60;30.11;99769.66;5031990;28;20037;-73
2022/05/04 10:56:03;;;;;;;6.22;4.53;;;;;;;21.83;29.50;99762.28;5032337;28;20414;-73
2022/05/04 10:58:34;;;;;;;6.13;4.25;;;;;;;21.87;29.38;99763.69;5042046;28;20052;-74
2022/05/04 11:01:11;;;;;;;5.57;4.10;;;;;;;21.67;29.90;99765.50;5049348;28;20021;-74
2022/05/04 11:03:48;;;;;;;6.97;4.13;;;;;;;21.56;29.88;99744.41;5053960;28;20037;-73
2022/05/04 11:06:23;;;;;;;5.40;3.75;;;;;;;21.58;29.22;99745.13;5052253;28;20151;-72
2022/05/04 11:08:49;;;;;;;7.70;4.15;;;;;;;21.66;29.97;99745.28;5052682;28;20040;-73
2022/05/04 11:11:15;;;;;;;5.32;4.43;;;;;;;21.63;28.96;99758.81;5066620;28;20040;-72
2022/05/04 11:13:43;;;;;;;6.50;4.57;;;;;;;21.42;28.98;99756.28;5095096;28;20069;-74
2022/05/04 11:16:09;;;;;;;5.68;3.90;;;;;;;21.33;29.36;99750.97;5094929;28;20032;-74
2022/05/04 11:18:35;;;;;;;4.25;3.70;;;;;;;21.44;29.40;99758.78;5093885;28;20042;-74
2022/05/04 11:21:05;;;;;;;4.57;3.67;;;;;;;21.53;29.89;99751.81;5094241;28;20373;-74
2022/05/04 11:23:31;;;;;;;4.57;3.83;;;;;;;21.35;29.13;99733.13;5093967;28;20031;-74
2022/05/04 11:25:56;;;;;;;5.25;4.32;;;;;;;21.63;29.21;99750.00;5094098;28;20031;-74
2022/05/04 11:28:25;;;;;;;4.47;3.47;;;;;;;21.62;29.03;99749.19;5093758;28;20032;-74
2022/05/04 11:30:55;;;;;;;5.78;3.53;;;;;;;21.45;29.29;99741.94;5094117;28;20020;-74
2022/05/04 11:33:20;;;;;;;6.78;4.03;;;;;;;21.20;29.29;99747.72;5093809;28;20493;-74
2022/05/04 11:35:54;;;;;;;5.65;4.03;;;;;;;20.78;30.45;99739.97;5094141;28;20113;-73
2022/05/04 11:38:21;;;;;;;4.57;3.97;;;;;;;20.70;30.47;99755.66;5093233;28;20056;-74
2022/05/04 11:40:47;;;;;;;4.97;4.07;;;;;;;20.56;30.78;99755.06;5094067;28;20020;-73
2022/05/04 11:43:33;;;;;;;6.13;4.07;;;;;;;20.38;30.69;99741.56;5093943;28;20411;-74
2022/05/04 11:46:04;;;;;;;5.78;3.88;;;;;;;20.24;30.69;99751.66;5094017;28;20593;-74
2022/05/04 11:48:30;;;;;;;6.47;4.28;;;;;;;20.06;31.23;99725.81;5074970;28;20054;-73
2022/05/04 11:50:55;;;;;;;4.20;3.78;;;;;;;19.99;31.20;99735.22;5093923;28;20024;-73
2022/05/04 11:53:21;;;;;;;5.72;3.85;;;;;;;19.81;31.91;99748.19;5093822;28;20035;-73
2022/05/04 11:55:46;;;;;;;4.72;3.67;;;;;;;19.80;32.34;99738.56;5093960;28;20023;-74
2022/05/04 11:58:14;;;;;;;6.10;4.03;;;;;;;19.85;32.35;99719.69;5093859;28;20479;-74
2022/05/04 12:00:40;;;;;;;8.13;4.10;;;;;;;20.06;31.67;99735.56;5093352;28;20039;-74